sensor_id;sensor_type;location;lat;lon;timestamp;P1;durP1;ratioP1;P2;durP2;ratioP2
80199;SDS011;69520;44.900;-0.764;2023-11-19T00:00:30;11.43;;;5.27;;
80199;SDS011;69520;44.900;-0.764;2023-11-19T00:02:56;11.93;;;5.60;;
80199;SDS011;69520;44.900;-0.764;2023-11-19T00:05:22;11.88;;;5.10;;
80199;SDS011;69520;44.900;-0.764;2023-11-19T00:07:48;13.93;;;5.07;;
80199;SDS011;69520;44.900;-0.764;2023-11-19T00:10:15;11.05;;;5.40;;
80199;SDS011;69520;44.900;-0.764;2023-11-19T00:12:44;10.77;;;5.10;;
80199;SDS011;69520;44.900;-0.764;2023-11-19T00:15:11;14.82;;;6.07;;
80199;SDS011;69520;44.900;-0.764;2023-11-19T00:17:37;12.90;;;6.00;;
80199;SDS011;69520;44.900;-0.764;2023-11-19T00:20:16;11.90;;;5.90;;
80199;SDS011;69520;44.900;-0.764;2023-11-19T00:22:42;14.20;;;6.35;;
80199;SDS011;69520;44.900;-0.764;2023-11-19T00:25:09;13.93;;;5.97;;
80199;SDS011;69520;44.900;-0.764;2023-11-19T00:27:35;13.13;;;6.22;;
80199;SDS011;69520;44.900;-0.764;2023-11-19T00:30:02;14.77;;;6.50;;
80199;SDS011;69520;44.900;-0.764;2023-11-19T00:32:30;13.32;;;6.25;;
80199;SDS011;69520;44.900;-0.764;2023-11-19T00:34:56;14.65;;;7.10;;
80199;SDS011;69520;44.900;-0.764;2023-11-19T00:37:22;14.77;;;7.07;;
80199;SDS011;69520;44.900;-0.764;2023-11-19T00:39:48;15.05;;;7.05;;
80199;SDS011;69520;44.900;-0.764;2023-11-19T00:42:14;14.90;;;7.30;;
80199;SDS011;69520;44.900;-0.764;2023-11-19T00:44:40;16.20;;;7.25;;
80199;SDS011;69520;44.900;-0.764;2023-11-19T00:47:06;15.45;;;6.55;;
80199;SDS011;69520;44.900;-0.764;2023-11-19T00:49:32;15.43;;;7.83;;
80199;SDS011;69520;44.900;-0.764;2023-11-19T00:51:59;17.80;;;7.60;;
80199;SDS011;69520;44.900;-0.764;2023-11-19T00:54:25;14.18;;;7.30;;
80199;SDS011;69520;44.900;-0.764;2023-11-19T00:56:53;15.15;;;6.05;;
80199;SDS011;69520;44.900;-0.764;2023-11-19T00:59:20;15.07;;;6.43;;
80199;SDS011;69520;44.900;-0.764;2023-11-19T01:01:46;12.50;;;6.10;;
80199;SDS011;69520;44.900;-0.764;2023-11-19T01:04:18;12.68;;;5.47;;
80199;SDS011;69520;44.900;-0.764;2023-11-19T01:06:44;11.80;;;5.40;;
80199;SDS011;69520;44.900;-0.764;2023-11-19T01:09:10;12.07;;;5.43;;
80199;SDS011;69520;44.900;-0.764;2023-11-19T01:11:36;11.15;;;5.50;;
80199;SDS011;69520;44.900;-0.764;2023-11-19T01:14:02;12.83;;;5.33;;
80199;SDS011;69520;44.900;-0.764;2023-11-19T01:16:28;11.90;;;5.25;;
80199;SDS011;69520;44.900;-0.764;2023-11-19T01:18:54;11.73;;;4.97;;
80199;SDS011;69520;44.900;-0.764;2023-11-19T01:21:21;12.80;;;5.50;;
80199;SDS011;69520;44.900;-0.764;2023-11-19T01:23:47;13.60;;;5.68;;
80199;SDS011;69520;44.900;-0.764;2023-11-19T01:26:13;13.10;;;4.90;;
80199;SDS011;69520;44.900;-0.764;2023-11-19T01:28:39;12.82;;;5.03;;
80199;SDS011;69520;44.900;-0.764;2023-11-19T01:31:09;11.65;;;5.40;;
80199;SDS011;69520;44.900;-0.764;2023-11-19T01:33:36;11.65;;;5.22;;
80199;SDS011;69520;44.900;-0.764;2023-11-19T01:36:02;10.82;;;4.93;;
80199;SDS011;69520;44.900;-0.764;2023-11-19T01:38:29;11.30;;;5.23;;
80199;SDS011;69520;44.900;-0.764;2023-11-19T01:40:58;12.38;;;5.43;;
80199;SDS011;69520;44.900;-0.764;2023-11-19T01:43:58;12.15;;;5.47;;
80199;SDS011;69520;44.900;-0.764;2023-11-19T01:46:17;12.68;;;5.43;;
80199;SDS011;69520;44.900;-0.764;2023-11-19T01:48:44;13.07;;;5.50;;
80199;SDS011;69520;44.900;-0.764;2023-11-19T01:51:11;15.00;;;5.37;;
80199;SDS011;69520;44.900;-0.764;2023-11-19T01:53:38;11.52;;;5.22;;
80199;SDS011;69520;44.900;-0.764;2023-11-19T01:56:05;12.25;;;5.60;;
80199;SDS011;69520;44.900;-0.764;2023-11-19T01:58:34;11.30;;;5.10;;
80199;SDS011;69520;44.900;-0.764;2023-11-19T02:01:01;15.18;;;5.43;;
80199;SDS011;69520;44.900;-0.764;2023-11-19T02:03:29;14.60;;;5.57;;
80199;SDS011;69520;44.900;-0.764;2023-11-19T02:05:57;11.93;;;4.82;;
80199;SDS011;69520;44.900;-0.764;2023-11-19T02:08:24;16.98;;;5.13;;
80199;SDS011;69520;44.900;-0.764;2023-11-19T02:10:52;11.75;;;5.35;;
80199;SDS011;69520;44.900;-0.764;2023-11-19T02:13:21;11.90;;;4.75;;
80199;SDS011;69520;44.900;-0.764;2023-11-19T02:15:47;13.00;;;4.90;;
80199;SDS011;69520;44.900;-0.764;2023-11-19T02:18:17;11.88;;;4.55;;
80199;SDS011;69520;44.900;-0.764;2023-11-19T02:20:44;9.13;;;4.20;;
80199;SDS011;69520;44.900;-0.764;2023-11-19T02:23:11;9.13;;;4.18;;
80199;SDS011;69520;44.900;-0.764;2023-11-19T02:25:37;9.57;;;3.97;;
80199;SDS011;69520;44.900;-0.764;2023-11-19T02:28:04;11.63;;;4.30;;
80199;SDS011;69520;44.900;-0.764;2023-11-19T02:30:30;10.38;;;4.30;;
80199;SDS011;69520;44.900;-0.764;2023-11-19T02:32:57;13.98;;;4.38;;
80199;SDS011;69520;44.900;-0.764;2023-11-19T02:35:27;11.82;;;4.45;;
80199;SDS011;69520;44.900;-0.764;2023-11-19T02:37:56;12.55;;;4.38;;
80199;SDS011;69520;44.900;-0.764;2023-11-19T02:40:22;11.30;;;4.60;;
80199;SDS011;69520;44.900;-0.764;2023-11-19T02:42:49;9.88;;;4.38;;
80199;SDS011;69520;44.900;-0.764;2023-11-19T02:45:15;12.02;;;4.97;;
80199;SDS011;69520;44.900;-0.764;2023-11-19T02:47:42;11.27;;;4.60;;
80199;SDS011;69520;44.900;-0.764;2023-11-19T02:50:11;10.80;;;4.45;;
80199;SDS011;69520;44.900;-0.764;2023-11-19T02:52:42;14.73;;;5.53;;
80199;SDS011;69520;44.900;-0.764;2023-11-19T02:55:10;12.27;;;4.88;;
80199;SDS011;69520;44.900;-0.764;2023-11-19T02:57:40;11.38;;;4.72;;
80199;SDS011;69520;44.900;-0.764;2023-11-19T03:00:12;8.75;;;4.28;;
80199;SDS011;69520;44.900;-0.764;2023-11-19T03:02:39;12.13;;;5.35;;
80199;SDS011;69520;44.900;-0.764;2023-11-19T03:05:10;11.73;;;4.93;;
80199;SDS011;69520;44.900;-0.764;2023-11-19T03:07:37;10.20;;;4.85;;
80199;SDS011;69520;44.900;-0.764;2023-11-19T03:10:03;13.23;;;6.10;;
80199;SDS011;69520;44.900;-0.764;2023-11-19T03:12:31;11.60;;;4.97;;
80199;SDS011;69520;44.900;-0.764;2023-11-19T03:14:57;10.30;;;5.00;;
80199;SDS011;69520;44.900;-0.764;2023-11-19T03:17:23;14.53;;;4.83;;
80199;SDS011;69520;44.900;-0.764;2023-11-19T03:19:50;10.93;;;4.97;;
80199;SDS011;69520;44.900;-0.764;2023-11-19T03:22:16;12.00;;;4.78;;
80199;SDS011;69520;44.900;-0.764;2023-11-19T03:24:42;12.52;;;5.07;;
80199;SDS011;69520;44.900;-0.764;2023-11-19T03:27:08;11.68;;;5.20;;
80199;SDS011;69520;44.900;-0.764;2023-11-19T03:29:34;13.33;;;5.10;;
80199;SDS011;69520;44.900;-0.764;2023-11-19T03:32:00;12.52;;;5.25;;
80199;SDS011;69520;44.900;-0.764;2023-11-19T03:34:26;12.45;;;5.40;;
80199;SDS011;69520;44.900;-0.764;2023-11-19T03:36:52;13.23;;;5.40;;
80199;SDS011;69520;44.900;-0.764;2023-11-19T03:39:18;9.82;;;4.90;;
80199;SDS011;69520;44.900;-0.764;2023-11-19T03:41:47;12.73;;;5.00;;
80199;SDS011;69520;44.900;-0.764;2023-11-19T03:44:13;9.80;;;4.57;;
80199;SDS011;69520;44.900;-0.764;2023-11-19T03:46:39;14.07;;;5.00;;
80199;SDS011;69520;44.900;-0.764;2023-11-19T03:49:04;12.15;;;4.65;;
80199;SDS011;69520;44.900;-0.764;2023-11-19T03:51:32;12.98;;;4.63;;
80199;SDS011;69520;44.900;-0.764;2023-11-19T03:53:59;10.70;;;4.80;;
80199;SDS011;69520;44.900;-0.764;2023-11-19T03:56:25;13.23;;;4.78;;
80199;SDS011;69520;44.900;-0.764;2023-11-19T03:58:52;14.82;;;5.10;;
80199;SDS011;69520;44.900;-0.764;2023-11-19T04:01:18;10.98;;;5.28;;
80199;SDS011;69520;44.900;-0.764;2023-11-19T04:03:44;10.77;;;5.57;;
80199;SDS011;69520;44.900;-0.764;2023-11-19T04:06:10;11.47;;;5.50;;
80199;SDS011;69520;44.900;-0.764;2023-11-19T04:08:36;11.05;;;5.20;;
80199;SDS011;69520;44.900;-0.764;2023-11-19T04:11:05;12.38;;;4.90;;
80199;SDS011;69520;44.900;-0.764;2023-11-19T04:13:31;11.77;;;4.80;;
80199;SDS011;69520;44.900;-0.764;2023-11-19T04:15:57;10.88;;;5.00;;
80199;SDS011;69520;44.900;-0.764;2023-11-19T04:18:23;10.00;;;4.40;;
80199;SDS011;69520;44.900;-0.764;2023-11-19T04:20:49;11.30;;;5.15;;
80199;SDS011;69520;44.900;-0.764;2023-11-19T04:23:16;11.00;;;4.60;;
80199;SDS011;69520;44.900;-0.764;2023-11-19T04:25:42;10.35;;;4.68;;
80199;SDS011;69520;44.900;-0.764;2023-11-19T04:28:08;12.20;;;4.60;;
80199;SDS011;69520;44.900;-0.764;2023-11-19T04:30:34;10.20;;;4.70;;
80199;SDS011;69520;44.900;-0.764;2023-11-19T04:33:00;10.35;;;4.43;;
80199;SDS011;69520;44.900;-0.764;2023-11-19T04:35:26;11.63;;;4.32;;
80199;SDS011;69520;44.900;-0.764;2023-11-19T04:37:52;10.02;;;4.28;;
80199;SDS011;69520;44.900;-0.764;2023-11-19T04:40:22;9.55;;;3.90;;
80199;SDS011;69520;44.900;-0.764;2023-11-19T04:42:48;9.53;;;3.93;;
80199;SDS011;69520;44.900;-0.764;2023-11-19T04:45:14;10.13;;;3.78;;
80199;SDS011;69520;44.900;-0.764;2023-11-19T04:47:41;10.82;;;4.10;;
80199;SDS011;69520;44.900;-0.764;2023-11-19T04:50:07;8.20;;;3.92;;
80199;SDS011;69520;44.900;-0.764;2023-11-19T04:52:37;11.27;;;4.35;;
80199;SDS011;69520;44.900;-0.764;2023-11-19T04:55:05;10.03;;;3.80;;
80199;SDS011;69520;44.900;-0.764;2023-11-19T04:57:31;9.88;;;3.90;;
80199;SDS011;69520;44.900;-0.764;2023-11-19T04:59:57;11.98;;;4.25;;
80199;SDS011;69520;44.900;-0.764;2023-11-19T05:02:24;10.80;;;4.57;;
80199;SDS011;69520;44.900;-0.764;2023-11-19T05:04:50;10.93;;;4.80;;
80199;SDS011;69520;44.900;-0.764;2023-11-19T05:07:16;11.10;;;4.63;;
80199;SDS011;69520;44.900;-0.764;2023-11-19T05:09:42;10.50;;;4.30;;
80199;SDS011;69520;44.900;-0.764;2023-11-19T05:12:08;9.60;;;4.15;;
80199;SDS011;69520;44.900;-0.764;2023-11-19T05:14:37;10.07;;;3.97;;
80199;SDS011;69520;44.900;-0.764;2023-11-19T05:17:03;9.38;;;4.10;;
80199;SDS011;69520;44.900;-0.764;2023-11-19T05:19:29;10.10;;;4.20;;
80199;SDS011;69520;44.900;-0.764;2023-11-19T05:21:55;12.73;;;5.03;;
80199;SDS011;69520;44.900;-0.764;2023-11-19T05:24:21;13.15;;;4.15;;
80199;SDS011;69520;44.900;-0.764;2023-11-19T05:26:47;11.20;;;4.60;;
80199;SDS011;69520;44.900;-0.764;2023-11-19T05:29:15;11.48;;;5.20;;
80199;SDS011;69520;44.900;-0.764;2023-11-19T05:31:41;15.03;;;6.80;;
80199;SDS011;69520;44.900;-0.764;2023-11-19T05:34:07;14.73;;;6.60;;
80199;SDS011;69520;44.900;-0.764;2023-11-19T05:36:33;13.88;;;5.88;;
80199;SDS011;69520;44.900;-0.764;2023-11-19T05:38:59;12.30;;;5.75;;
80199;SDS011;69520;44.900;-0.764;2023-11-19T05:41:25;14.32;;;6.55;;
80199;SDS011;69520;44.900;-0.764;2023-11-19T05:43:51;13.57;;;5.97;;
80199;SDS011;69520;44.900;-0.764;2023-11-19T05:46:17;14.35;;;6.35;;
80199;SDS011;69520;44.900;-0.764;2023-11-19T05:48:43;11.73;;;5.88;;
80199;SDS011;69520;44.900;-0.764;2023-11-19T05:51:11;14.00;;;5.55;;
80199;SDS011;69520;44.900;-0.764;2023-11-19T05:53:38;13.35;;;5.40;;
80199;SDS011;69520;44.900;-0.764;2023-11-19T05:56:04;13.80;;;5.67;;
80199;SDS011;69520;44.900;-0.764;2023-11-19T05:58:33;13.38;;;5.13;;
80199;SDS011;69520;44.900;-0.764;2023-11-19T06:00:59;12.55;;;5.13;;
80199;SDS011;69520;44.900;-0.764;2023-11-19T06:03:28;9.65;;;4.07;;
80199;SDS011;69520;44.900;-0.764;2023-11-19T06:05:54;11.63;;;4.10;;
80199;SDS011;69520;44.900;-0.764;2023-11-19T06:08:20;10.70;;;3.70;;
80199;SDS011;69520;44.900;-0.764;2023-11-19T06:10:46;9.60;;;3.40;;
80199;SDS011;69520;44.900;-0.764;2023-11-19T06:13:15;11.20;;;4.20;;
80199;SDS011;69520;44.900;-0.764;2023-11-19T06:15:41;9.93;;;3.70;;
80199;SDS011;69520;44.900;-0.764;2023-11-19T06:18:08;9.23;;;3.70;;
80199;SDS011;69520;44.900;-0.764;2023-11-19T06:20:34;11.20;;;3.90;;
80199;SDS011;69520;44.900;-0.764;2023-11-19T06:23:01;9.57;;;3.97;;
80199;SDS011;69520;44.900;-0.764;2023-11-19T06:25:27;10.10;;;3.38;;
80199;SDS011;69520;44.900;-0.764;2023-11-19T06:27:53;10.82;;;3.10;;
80199;SDS011;69520;44.900;-0.764;2023-11-19T06:30:19;9.45;;;3.53;;
80199;SDS011;69520;44.900;-0.764;2023-11-19T06:32:48;9.67;;;3.30;;
80199;SDS011;69520;44.900;-0.764;2023-11-19T06:35:14;8.75;;;3.40;;
80199;SDS011;69520;44.900;-0.764;2023-11-19T06:37:40;8.90;;;3.63;;
80199;SDS011;69520;44.900;-0.764;2023-11-19T06:40:07;9.75;;;3.83;;
80199;SDS011;69520;44.900;-0.764;2023-11-19T06:42:34;11.85;;;5.25;;
80199;SDS011;69520;44.900;-0.764;2023-11-19T06:45:00;11.67;;;5.60;;
80199;SDS011;69520;44.900;-0.764;2023-11-19T06:47:27;11.98;;;5.15;;
80199;SDS011;69520;44.900;-0.764;2023-11-19T06:49:53;11.35;;;5.28;;
80199;SDS011;69520;44.900;-0.764;2023-11-19T06:52:19;9.48;;;3.92;;
80199;SDS011;69520;44.900;-0.764;2023-11-19T06:54:46;10.50;;;4.72;;
80199;SDS011;69520;44.900;-0.764;2023-11-19T06:57:12;9.83;;;3.20;;
80199;SDS011;69520;44.900;-0.764;2023-11-19T06:59:38;9.95;;;2.70;;
80199;SDS011;69520;44.900;-0.764;2023-11-19T07:02:04;7.78;;;2.90;;
80199;SDS011;69520;44.900;-0.764;2023-11-19T07:04:30;7.22;;;2.78;;
80199;SDS011;69520;44.900;-0.764;2023-11-19T07:06:58;7.57;;;2.42;;
80199;SDS011;69520;44.900;-0.764;2023-11-19T07:09:24;7.27;;;2.10;;
80199;SDS011;69520;44.900;-0.764;2023-11-19T07:11:50;7.43;;;2.42;;
80199;SDS011;69520;44.900;-0.764;2023-11-19T07:14:17;7.65;;;2.20;;
80199;SDS011;69520;44.900;-0.764;2023-11-19T07:16:43;6.70;;;2.30;;
80199;SDS011;69520;44.900;-0.764;2023-11-19T07:19:11;7.60;;;2.20;;
80199;SDS011;69520;44.900;-0.764;2023-11-19T07:21:37;7.93;;;2.43;;
80199;SDS011;69520;44.900;-0.764;2023-11-19T07:24:09;7.95;;;2.55;;
80199;SDS011;69520;44.900;-0.764;2023-11-19T07:26:35;9.63;;;3.45;;
80199;SDS011;69520;44.900;-0.764;2023-11-19T07:29:02;9.32;;;3.53;;
80199;SDS011;69520;44.900;-0.764;2023-11-19T07:31:28;8.00;;;3.30;;
80199;SDS011;69520;44.900;-0.764;2023-11-19T07:33:54;8.33;;;3.00;;
80199;SDS011;69520;44.900;-0.764;2023-11-19T07:36:20;9.70;;;3.55;;
80199;SDS011;69520;44.900;-0.764;2023-11-19T07:38:46;8.00;;;3.00;;
80199;SDS011;69520;44.900;-0.764;2023-11-19T07:41:12;8.75;;;3.28;;
80199;SDS011;69520;44.900;-0.764;2023-11-19T07:43:39;8.40;;;3.08;;
80199;SDS011;69520;44.900;-0.764;2023-11-19T07:46:12;6.80;;;2.80;;
80199;SDS011;69520;44.900;-0.764;2023-11-19T07:48:38;7.60;;;2.85;;
80199;SDS011;69520;44.900;-0.764;2023-11-19T07:51:05;7.82;;;2.50;;
80199;SDS011;69520;44.900;-0.764;2023-11-19T07:53:31;9.43;;;3.00;;
80199;SDS011;69520;44.900;-0.764;2023-11-19T07:55:58;6.93;;;2.20;;
80199;SDS011;69520;44.900;-0.764;2023-11-19T07:58:27;7.43;;;2.50;;
80199;SDS011;69520;44.900;-0.764;2023-11-19T08:00:53;7.50;;;2.97;;
80199;SDS011;69520;44.900;-0.764;2023-11-19T08:03:19;7.82;;;2.90;;
80199;SDS011;69520;44.900;-0.764;2023-11-19T08:05:47;7.75;;;2.65;;
80199;SDS011;69520;44.900;-0.764;2023-11-19T08:08:13;8.02;;;2.80;;
80199;SDS011;69520;44.900;-0.764;2023-11-19T08:10:39;8.30;;;3.10;;
80199;SDS011;69520;44.900;-0.764;2023-11-19T08:13:05;7.95;;;2.35;;
80199;SDS011;69520;44.900;-0.764;2023-11-19T08:15:31;8.13;;;2.72;;
80199;SDS011;69520;44.900;-0.764;2023-11-19T08:17:57;7.20;;;2.60;;
80199;SDS011;69520;44.900;-0.764;2023-11-19T08:20:23;6.57;;;2.20;;
80199;SDS011;69520;44.900;-0.764;2023-11-19T08:22:49;7.40;;;2.67;;
80199;SDS011;69520;44.900;-0.764;2023-11-19T08:25:15;6.65;;;2.30;;
80199;SDS011;69520;44.900;-0.764;2023-11-19T08:27:41;7.60;;;2.35;;
80199;SDS011;69520;44.900;-0.764;2023-11-19T08:30:08;10.30;;;3.75;;
80199;SDS011;69520;44.900;-0.764;2023-11-19T08:32:34;10.30;;;3.88;;
80199;SDS011;69520;44.900;-0.764;2023-11-19T08:35:01;9.20;;;2.77;;
80199;SDS011;69520;44.900;-0.764;2023-11-19T08:37:26;8.70;;;2.83;;
80199;SDS011;69520;44.900;-0.764;2023-11-19T08:39:53;7.07;;;2.90;;
80199;SDS011;69520;44.900;-0.764;2023-11-19T08:42:19;10.38;;;3.13;;
80199;SDS011;69520;44.900;-0.764;2023-11-19T08:44:49;7.25;;;2.50;;
80199;SDS011;69520;44.900;-0.764;2023-11-19T08:47:16;6.93;;;2.43;;
80199;SDS011;69520;44.900;-0.764;2023-11-19T08:49:44;6.97;;;2.55;;
80199;SDS011;69520;44.900;-0.764;2023-11-19T08:52:11;6.07;;;2.03;;
80199;SDS011;69520;44.900;-0.764;2023-11-19T08:54:37;7.28;;;1.92;;
80199;SDS011;69520;44.900;-0.764;2023-11-19T08:57:03;6.80;;;2.17;;
80199;SDS011;69520;44.900;-0.764;2023-11-19T08:59:32;7.00;;;2.10;;
80199;SDS011;69520;44.900;-0.764;2023-11-19T09:01:58;11.73;;;4.47;;
80199;SDS011;69520;44.900;-0.764;2023-11-19T09:04:24;8.55;;;2.88;;
80199;SDS011;69520;44.900;-0.764;2023-11-19T09:06:50;8.95;;;2.60;;
80199;SDS011;69520;44.900;-0.764;2023-11-19T09:09:16;6.93;;;2.38;;
80199;SDS011;69520;44.900;-0.764;2023-11-19T09:11:42;8.83;;;3.03;;
80199;SDS011;69520;44.900;-0.764;2023-11-19T09:14:08;11.35;;;4.60;;
80199;SDS011;69520;44.900;-0.764;2023-11-19T09:16:34;7.80;;;2.88;;
80199;SDS011;69520;44.900;-0.764;2023-11-19T09:19:00;7.55;;;2.13;;
80199;SDS011;69520;44.900;-0.764;2023-11-19T09:21:27;8.00;;;2.30;;
80199;SDS011;69520;44.900;-0.764;2023-11-19T09:23:57;6.53;;;2.17;;
80199;SDS011;69520;44.900;-0.764;2023-11-19T09:26:23;6.32;;;1.65;;
80199;SDS011;69520;44.900;-0.764;2023-11-19T09:28:49;7.57;;;2.92;;
80199;SDS011;69520;44.900;-0.764;2023-11-19T09:31:16;6.70;;;2.38;;
80199;SDS011;69520;44.900;-0.764;2023-11-19T09:33:42;9.13;;;2.45;;
80199;SDS011;69520;44.900;-0.764;2023-11-19T09:36:08;9.27;;;3.70;;
80199;SDS011;69520;44.900;-0.764;2023-11-19T09:38:36;8.75;;;3.88;;
80199;SDS011;69520;44.900;-0.764;2023-11-19T09:41:06;8.55;;;3.10;;
80199;SDS011;69520;44.900;-0.764;2023-11-19T09:43:36;8.70;;;2.58;;
80199;SDS011;69520;44.900;-0.764;2023-11-19T09:46:06;6.22;;;2.10;;
80199;SDS011;69520;44.900;-0.764;2023-11-19T09:48:35;5.60;;;1.70;;
80199;SDS011;69520;44.900;-0.764;2023-11-19T09:51:02;8.38;;;3.92;;
80199;SDS011;69520;44.900;-0.764;2023-11-19T09:53:28;6.90;;;2.42;;
80199;SDS011;69520;44.900;-0.764;2023-11-19T09:55:55;5.85;;;2.15;;
80199;SDS011;69520;44.900;-0.764;2023-11-19T09:58:21;5.95;;;1.95;;
80199;SDS011;69520;44.900;-0.764;2023-11-19T10:00:47;8.53;;;2.90;;
80199;SDS011;69520;44.900;-0.764;2023-11-19T10:03:13;7.53;;;2.45;;
80199;SDS011;69520;44.900;-0.764;2023-11-19T10:05:39;8.05;;;2.90;;
80199;SDS011;69520;44.900;-0.764;2023-11-19T10:08:06;6.28;;;1.90;;
80199;SDS011;69520;44.900;-0.764;2023-11-19T10:10:33;6.10;;;1.40;;
80199;SDS011;69520;44.900;-0.764;2023-11-19T10:12:59;6.13;;;2.07;;
80199;SDS011;69520;44.900;-0.764;2023-11-19T10:15:25;8.40;;;3.00;;
80199;SDS011;69520;44.900;-0.764;2023-11-19T10:17:58;7.85;;;2.00;;
80199;SDS011;69520;44.900;-0.764;2023-11-19T10:20:24;7.38;;;2.03;;
80199;SDS011;69520;44.900;-0.764;2023-11-19T10:22:53;8.70;;;2.70;;
80199;SDS011;69520;44.900;-0.764;2023-11-19T10:25:26;6.73;;;2.07;;
80199;SDS011;69520;44.900;-0.764;2023-11-19T10:27:53;8.35;;;2.80;;
80199;SDS011;69520;44.900;-0.764;2023-11-19T10:30:29;8.07;;;2.85;;
80199;SDS011;69520;44.900;-0.764;2023-11-19T10:33:11;7.47;;;2.00;;
80199;SDS011;69520;44.900;-0.764;2023-11-19T10:35:54;8.25;;;2.30;;
80199;SDS011;69520;44.900;-0.764;2023-11-19T10:38:24;9.07;;;3.40;;
80199;SDS011;69520;44.900;-0.764;2023-11-19T10:40:51;8.48;;;2.92;;
80199;SDS011;69520;44.900;-0.764;2023-11-19T10:43:18;6.05;;;1.65;;
80199;SDS011;69520;44.900;-0.764;2023-11-19T10:45:44;8.27;;;3.22;;
80199;SDS011;69520;44.900;-0.764;2023-11-19T10:48:10;11.25;;;4.97;;
80199;SDS011;69520;44.900;-0.764;2023-11-19T10:50:38;10.97;;;4.83;;
80199;SDS011;69520;44.900;-0.764;2023-11-19T10:53:04;7.15;;;2.50;;
80199;SDS011;69520;44.900;-0.764;2023-11-19T10:55:31;5.80;;;1.75;;
80199;SDS011;69520;44.900;-0.764;2023-11-19T10:58:02;5.82;;;1.77;;
80199;SDS011;69520;44.900;-0.764;2023-11-19T11:03:05;5.87;;;1.50;;
80199;SDS011;69520;44.900;-0.764;2023-11-19T11:05:35;7.15;;;1.90;;
80199;SDS011;69520;44.900;-0.764;2023-11-19T11:08:02;8.63;;;1.98;;
80199;SDS011;69520;44.900;-0.764;2023-11-19T11:10:30;6.57;;;2.10;;
80199;SDS011;69520;44.900;-0.764;2023-11-19T11:13:00;6.72;;;2.10;;
80199;SDS011;69520;44.900;-0.764;2023-11-19T11:15:28;5.93;;;2.23;;
80199;SDS011;69520;44.900;-0.764;2023-11-19T11:17:57;9.20;;;2.75;;
80199;SDS011;69520;44.900;-0.764;2023-11-19T11:20:27;6.63;;;1.95;;
80199;SDS011;69520;44.900;-0.764;2023-11-19T11:25:35;6.88;;;2.63;;
80199;SDS011;69520;44.900;-0.764;2023-11-19T11:36:06;7.38;;;2.60;;
80199;SDS011;69520;44.900;-0.764;2023-11-19T11:38:37;8.15;;;3.45;;
80199;SDS011;69520;44.900;-0.764;2023-11-19T11:41:17;8.67;;;3.13;;
80199;SDS011;69520;44.900;-0.764;2023-11-19T11:43:51;7.90;;;2.80;;
80199;SDS011;69520;44.900;-0.764;2023-11-19T11:49:00;8.15;;;3.88;;
80199;SDS011;69520;44.900;-0.764;2023-11-19T11:54:28;8.93;;;2.57;;
80199;SDS011;69520;44.900;-0.764;2023-11-19T11:57:02;8.10;;;3.20;;
80199;SDS011;69520;44.900;-0.764;2023-11-19T11:59:36;9.25;;;3.33;;
80199;SDS011;69520;44.900;-0.764;2023-11-19T12:02:03;8.52;;;2.42;;
80199;SDS011;69520;44.900;-0.764;2023-11-19T12:04:29;7.37;;;2.33;;
80199;SDS011;69520;44.900;-0.764;2023-11-19T12:07:17;6.45;;;1.75;;
80199;SDS011;69520;44.900;-0.764;2023-11-19T12:09:47;8.82;;;2.40;;
80199;SDS011;69520;44.900;-0.764;2023-11-19T12:12:20;7.68;;;1.95;;
80199;SDS011;69520;44.900;-0.764;2023-11-19T12:14:59;7.32;;;1.75;;
80199;SDS011;69520;44.900;-0.764;2023-11-19T12:17:47;7.57;;;1.67;;
80199;SDS011;69520;44.900;-0.764;2023-11-19T12:20:14;7.55;;;1.73;;
80199;SDS011;69520;44.900;-0.764;2023-11-19T12:22:41;8.32;;;1.60;;
80199;SDS011;69520;44.900;-0.764;2023-11-19T12:25:08;6.55;;;1.55;;
80199;SDS011;69520;44.900;-0.764;2023-11-19T12:27:44;6.47;;;1.70;;
80199;SDS011;69520;44.900;-0.764;2023-11-19T12:30:10;7.47;;;1.70;;
80199;SDS011;69520;44.900;-0.764;2023-11-19T12:32:40;5.95;;;1.50;;
80199;SDS011;69520;44.900;-0.764;2023-11-19T12:35:07;6.78;;;1.50;;
80199;SDS011;69520;44.900;-0.764;2023-11-19T12:37:45;8.43;;;1.98;;
80199;SDS011;69520;44.900;-0.764;2023-11-19T12:40:13;5.68;;;1.60;;
80199;SDS011;69520;44.900;-0.764;2023-11-19T12:42:40;5.47;;;1.50;;
80199;SDS011;69520;44.900;-0.764;2023-11-19T12:45:06;5.45;;;1.35;;
80199;SDS011;69520;44.900;-0.764;2023-11-19T12:47:35;5.43;;;1.20;;
80199;SDS011;69520;44.900;-0.764;2023-11-19T12:50:02;9.50;;;1.70;;
80199;SDS011;69520;44.900;-0.764;2023-11-19T12:52:29;4.45;;;1.02;;
80199;SDS011;69520;44.900;-0.764;2023-11-19T12:54:55;6.43;;;1.30;;
80199;SDS011;69520;44.900;-0.764;2023-11-19T12:57:35;6.38;;;1.40;;
80199;SDS011;69520;44.900;-0.764;2023-11-19T13:00:01;5.53;;;1.50;;
80199;SDS011;69520;44.900;-0.764;2023-11-19T13:03:00;6.88;;;1.40;;
80199;SDS011;69520;44.900;-0.764;2023-11-19T13:05:20;7.57;;;1.30;;
80199;SDS011;69520;44.900;-0.764;2023-11-19T13:07:46;4.87;;;0.93;;
80199;SDS011;69520;44.900;-0.764;2023-11-19T13:10:12;7.13;;;1.40;;
80199;SDS011;69520;44.900;-0.764;2023-11-19T13:12:38;7.97;;;1.80;;
80199;SDS011;69520;44.900;-0.764;2023-11-19T13:15:05;6.65;;;1.20;;
80199;SDS011;69520;44.900;-0.764;2023-11-19T13:17:31;5.28;;;0.90;;
80199;SDS011;69520;44.900;-0.764;2023-11-19T13:19:57;5.97;;;1.20;;
80199;SDS011;69520;44.900;-0.764;2023-11-19T13:22:23;5.57;;;1.40;;
80199;SDS011;69520;44.900;-0.764;2023-11-19T13:24:49;6.47;;;1.40;;
80199;SDS011;69520;44.900;-0.764;2023-11-19T13:27:15;5.65;;;1.33;;
80199;SDS011;69520;44.900;-0.764;2023-11-19T13:29:43;5.32;;;1.10;;
80199;SDS011;69520;44.900;-0.764;2023-11-19T13:32:09;4.50;;;0.90;;
80199;SDS011;69520;44.900;-0.764;2023-11-19T13:34:35;5.90;;;1.42;;
80199;SDS011;69520;44.900;-0.764;2023-11-19T13:37:01;8.32;;;1.30;;
80199;SDS011;69520;44.900;-0.764;2023-11-19T13:39:27;5.70;;;1.00;;
80199;SDS011;69520;44.900;-0.764;2023-11-19T13:41:53;7.35;;;1.60;;
80199;SDS011;69520;44.900;-0.764;2023-11-19T13:44:19;6.03;;;1.30;;
80199;SDS011;69520;44.900;-0.764;2023-11-19T13:46:45;4.75;;;1.05;;
80199;SDS011;69520;44.900;-0.764;2023-11-19T13:49:12;6.72;;;1.10;;
80199;SDS011;69520;44.900;-0.764;2023-11-19T13:51:38;6.00;;;1.45;;
80199;SDS011;69520;44.900;-0.764;2023-11-19T13:54:04;4.55;;;0.95;;
80199;SDS011;69520;44.900;-0.764;2023-11-19T13:56:30;6.40;;;1.20;;
80199;SDS011;69520;44.900;-0.764;2023-11-19T13:58:56;6.07;;;1.15;;
80199;SDS011;69520;44.900;-0.764;2023-11-19T14:01:22;7.38;;;1.40;;
80199;SDS011;69520;44.900;-0.764;2023-11-19T14:03:48;7.75;;;1.23;;
80199;SDS011;69520;44.900;-0.764;2023-11-19T14:06:14;5.90;;;1.10;;
80199;SDS011;69520;44.900;-0.764;2023-11-19T14:08:40;4.50;;;0.83;;
80199;SDS011;69520;44.900;-0.764;2023-11-19T14:11:06;6.28;;;1.20;;
80199;SDS011;69520;44.900;-0.764;2023-11-19T14:13:32;4.05;;;1.20;;
80199;SDS011;69520;44.900;-0.764;2023-11-19T14:15:59;6.18;;;1.30;;
80199;SDS011;69520;44.900;-0.764;2023-11-19T14:18:25;6.35;;;1.10;;
80199;SDS011;69520;44.900;-0.764;2023-11-19T14:20:51;5.63;;;1.00;;
80199;SDS011;69520;44.900;-0.764;2023-11-19T14:23:17;6.82;;;1.50;;
80199;SDS011;69520;44.900;-0.764;2023-11-19T14:25:43;5.95;;;0.80;;
80199;SDS011;69520;44.900;-0.764;2023-11-19T14:28:09;5.57;;;1.00;;
80199;SDS011;69520;44.900;-0.764;2023-11-19T14:30:35;5.22;;;1.33;;
80199;SDS011;69520;44.900;-0.764;2023-11-19T14:33:02;7.53;;;1.20;;
80199;SDS011;69520;44.900;-0.764;2023-11-19T14:35:28;5.82;;;1.13;;
80199;SDS011;69520;44.900;-0.764;2023-11-19T14:37:55;6.50;;;1.15;;
80199;SDS011;69520;44.900;-0.764;2023-11-19T14:40:21;6.07;;;1.15;;
80199;SDS011;69520;44.900;-0.764;2023-11-19T14:42:47;5.97;;;1.00;;
80199;SDS011;69520;44.900;-0.764;2023-11-19T14:45:13;4.70;;;0.93;;
80199;SDS011;69520;44.900;-0.764;2023-11-19T14:47:39;9.68;;;1.27;;